createdAt,value
2017-08-10T00:00:19.930Z,1013.2
2017-08-10T00:01:21.480Z,1013.3
2017-08-10T00:02:43.097Z,1013.3
2017-08-10T00:03:44.508Z,1013.3
2017-08-10T00:05:06.151Z,1013.2
2017-08-10T00:06:07.569Z,1013.2
2017-08-10T00:07:29.067Z,1013.2
2017-08-10T00:08:30.478Z,1013.2
2017-08-10T00:09:52.194Z,1013.2
2017-08-10T00:10:53.675Z,1013.2
2017-08-10T00:12:15.273Z,1013.3
2017-08-10T00:13:16.774Z,1013.3
2017-08-10T00:14:38.385Z,1013.3
2017-08-10T00:15:39.796Z,1013.3
2017-08-10T00:17:01.370Z,1013.4
2017-08-10T00:18:02.948Z,1013.3
2017-08-10T00:19:24.445Z,1013.2
2017-08-10T00:20:25.854Z,1013.2
2017-08-10T00:21:47.374Z,1013.2
2017-08-10T00:22:48.880Z,1013.2
2017-08-10T00:24:10.381Z,1013.2
2017-08-10T00:25:11.791Z,1013.2
2017-08-10T00:26:33.310Z,1013.3
2017-08-10T00:27:34.777Z,1013.3
2017-08-10T00:28:56.306Z,1013.3
2017-08-10T00:29:57.728Z,1013.3
2017-08-10T00:31:19.251Z,1013.2
2017-08-10T00:32:20.662Z,1013.2
2017-08-10T00:33:42.166Z,1013.2
2017-08-10T00:34:43.575Z,1013.1
2017-08-10T00:36:05.097Z,1013.1
2017-08-10T00:37:06.507Z,1013.2
2017-08-10T00:38:28.003Z,1013.2
2017-08-10T00:39:29.416Z,1013.2
2017-08-10T00:40:50.937Z,1013.2
2017-08-10T00:41:52.345Z,1013.2
2017-08-10T00:43:13.890Z,1013.2
2017-08-10T00:44:15.298Z,1013.2
2017-08-10T00:45:36.816Z,1013.3
2017-08-10T00:46:38.277Z,1013.3
2017-08-10T00:47:59.807Z,1013.3
2017-08-10T00:49:01.225Z,1013.3
2017-08-10T00:50:22.780Z,1013.2
2017-08-10T00:51:24.237Z,1013.2
2017-08-10T00:52:45.741Z,1013.2
2017-08-10T00:53:47.152Z,1013.2
2017-08-10T00:55:08.648Z,1013.2
2017-08-10T00:56:10.058Z,1013.2
2017-08-10T00:57:31.580Z,1013.1
2017-08-10T00:58:32.991Z,1013.1
2017-08-10T00:59:54.489Z,1013.1
2017-08-10T01:00:55.898Z,1013.1
2017-08-10T01:02:17.411Z,1013.1
2017-08-10T01:03:18.823Z,1013.0
2017-08-10T01:04:40.319Z,1013.0
2017-08-10T01:05:41.731Z,1013.0
2017-08-10T01:07:03.473Z,1012.9
2017-08-10T01:08:04.881Z,1012.9
2017-08-10T01:09:26.380Z,1012.9
2017-08-10T01:10:27.923Z,1012.9
2017-08-10T01:11:49.431Z,1012.9
2017-08-10T01:12:50.843Z,1012.8
2017-08-10T01:14:12.340Z,1012.8
2017-08-10T01:15:13.748Z,1012.7
2017-08-10T01:16:35.269Z,1012.7
2017-08-10T01:17:36.680Z,1012.8
2017-08-10T01:18:58.177Z,1012.8
2017-08-10T01:19:59.604Z,1012.8
2017-08-10T01:21:21.122Z,1012.8
2017-08-10T01:22:22.532Z,1012.9
2017-08-10T01:23:44.031Z,1012.9
2017-08-10T01:24:45.440Z,1012.9
2017-08-10T01:26:06.962Z,1012.9
2017-08-10T01:27:08.371Z,1012.9
2017-08-10T01:28:29.869Z,1012.9
2017-08-10T01:29:31.280Z,1012.9
2017-08-10T01:30:52.797Z,1012.9
2017-08-10T01:31:54.208Z,1012.9
2017-08-10T01:33:15.703Z,1012.9
2017-08-10T01:34:17.113Z,1012.9
2017-08-10T01:35:38.631Z,1012.8
2017-08-10T01:36:40.040Z,1012.9
2017-08-10T01:38:01.539Z,1012.8
2017-08-10T01:39:02.949Z,1012.9
2017-08-10T01:40:24.445Z,1012.9
2017-08-10T01:41:25.855Z,1013.0
2017-08-10T01:42:47.370Z,1012.9
2017-08-10T01:43:48.781Z,1012.9
2017-08-10T01:45:10.278Z,1012.9
2017-08-10T01:46:11.687Z,1012.9
2017-08-10T01:47:33.204Z,1013.0
2017-08-10T01:48:34.614Z,1013.0
2017-08-10T01:49:56.108Z,1013.0
2017-08-10T01:50:57.516Z,1013.0
2017-08-10T01:52:19.040Z,1013.0
2017-08-10T01:53:20.451Z,1013.0
2017-08-10T01:54:41.945Z,1013.0
2017-08-10T01:55:43.355Z,1012.9
2017-08-10T01:57:04.870Z,1012.9
2017-08-10T01:58:06.280Z,1012.9
2017-08-10T01:59:27.776Z,1012.9
2017-08-10T02:00:29.188Z,1012.8
2017-08-10T02:01:50.703Z,1012.8
2017-08-10T02:02:52.114Z,1012.8
2017-08-10T02:04:13.612Z,1012.7
2017-08-10T02:05:15.022Z,1012.7
2017-08-10T02:06:36.545Z,1012.7
2017-08-10T02:07:37.955Z,1012.7
2017-08-10T02:08:59.451Z,1012.8
2017-08-10T02:10:00.863Z,1012.8
2017-08-10T02:11:22.379Z,1012.9
2017-08-10T02:12:23.791Z,1012.9
2017-08-10T02:13:45.286Z,1012.9
2017-08-10T02:14:46.695Z,1012.9
2017-08-10T02:16:08.220Z,1012.9
2017-08-10T02:17:09.629Z,1012.8
2017-08-10T02:18:31.126Z,1012.9
2017-08-10T02:19:32.534Z,1012.9
2017-08-10T02:20:54.049Z,1012.9
2017-08-10T02:21:55.459Z,1012.9
2017-08-10T02:23:16.958Z,1012.9
2017-08-10T02:24:18.366Z,1013.0
2017-08-10T02:25:39.880Z,1012.9
2017-08-10T02:26:41.290Z,1013.0
2017-08-10T02:28:02.791Z,1013.0
2017-08-10T02:29:04.202Z,1013.0
2017-08-10T02:30:25.701Z,1013.0
2017-08-10T02:31:27.110Z,1013.0
2017-08-10T02:32:48.626Z,1013.0
2017-08-10T02:33:50.036Z,1013.0
2017-08-10T02:35:11.534Z,1013.1
2017-08-10T02:36:12.943Z,1013.1
2017-08-10T02:37:34.456Z,1013.2
2017-08-10T02:38:35.868Z,1013.2
2017-08-10T02:39:57.366Z,1013.2
2017-08-10T02:40:58.777Z,1013.3
2017-08-10T02:42:20.294Z,1013.3
2017-08-10T02:43:21.707Z,1013.3
2017-08-10T02:44:43.197Z,1013.2
2017-08-10T02:45:44.607Z,1013.2
2017-08-10T02:47:06.125Z,1013.1
2017-08-10T02:48:07.538Z,1013.1
2017-08-10T02:49:29.038Z,1013.1
2017-08-10T02:50:30.446Z,1013.1
2017-08-10T02:51:51.963Z,1013.1
2017-08-10T02:52:53.374Z,1013.0
2017-08-10T02:54:14.872Z,1013.1
2017-08-10T02:55:16.281Z,1013.0
2017-08-10T02:56:38.791Z,1013.1
2017-08-10T02:57:40.199Z,1013.1
2017-08-10T02:59:01.698Z,1013.1
2017-08-10T03:00:03.107Z,1013.1
2017-08-10T03:01:24.627Z,1013.1
2017-08-10T03:02:26.037Z,1013.0
2017-08-10T03:03:47.532Z,1013.1
2017-08-10T03:04:48.943Z,1013.1
2017-08-10T03:06:10.459Z,1013.1
2017-08-10T03:07:11.869Z,1013.2
2017-08-10T03:08:33.373Z,1013.2
2017-08-10T03:09:34.782Z,1013.3
2017-08-10T03:10:56.300Z,1013.4
2017-08-10T03:11:57.709Z,1013.4
2017-08-10T03:13:19.201Z,1013.3
2017-08-10T03:14:20.611Z,1013.4
2017-08-10T03:15:42.111Z,1013.4
2017-08-10T03:16:43.521Z,1013.4
2017-08-10T03:18:05.038Z,1013.4
2017-08-10T03:19:06.449Z,1013.3
2017-08-10T03:20:27.948Z,1013.3
2017-08-10T03:21:29.353Z,1013.2
2017-08-10T03:22:50.872Z,1013.2
2017-08-10T03:23:52.282Z,1013.2
2017-08-10T03:25:13.778Z,1013.2
2017-08-10T03:26:15.189Z,1013.1
2017-08-10T03:27:36.705Z,1013.1
2017-08-10T03:28:38.117Z,1013.1
2017-08-10T03:29:59.611Z,1013.1
2017-08-10T03:31:01.039Z,1013.2
2017-08-10T03:32:22.550Z,1013.2
2017-08-10T03:33:23.960Z,1013.2
2017-08-10T03:34:45.453Z,1013.3
2017-08-10T03:35:46.864Z,1013.3
2017-08-10T03:37:08.379Z,1013.3
2017-08-10T03:38:09.790Z,1013.3
2017-08-10T03:39:31.287Z,1013.3
2017-08-10T03:40:32.696Z,1013.3
2017-08-10T03:41:54.214Z,1013.4
2017-08-10T03:42:55.623Z,1013.4
2017-08-10T03:44:17.121Z,1013.4
2017-08-10T03:45:18.531Z,1013.5
2017-08-10T03:46:40.046Z,1013.5
2017-08-10T03:47:41.461Z,1013.5
2017-08-10T03:49:02.959Z,1013.4
2017-08-10T03:50:04.369Z,1013.4
2017-08-10T03:51:25.883Z,1013.3
2017-08-10T03:52:27.297Z,1013.4
2017-08-10T03:53:48.796Z,1013.4
2017-08-10T03:54:50.206Z,1013.4
2017-08-10T03:56:11.735Z,1013.5
2017-08-10T03:57:13.138Z,1013.5
2017-08-10T03:58:34.634Z,1013.5
2017-08-10T03:59:36.044Z,1013.5
2017-08-10T04:00:57.540Z,1013.5
2017-08-10T04:01:58.954Z,1013.4
2017-08-10T04:03:20.468Z,1013.4
2017-08-10T04:04:21.881Z,1013.3
2017-08-10T04:05:43.379Z,1013.3
2017-08-10T04:06:44.791Z,1013.3
2017-08-10T04:08:06.317Z,1013.3
2017-08-10T04:09:07.727Z,1013.4
2017-08-10T04:10:29.228Z,1013.3
2017-08-10T04:11:30.641Z,1013.3
2017-08-10T04:12:52.160Z,1013.3
2017-08-10T04:13:53.576Z,1013.4
2017-08-10T04:15:15.072Z,1013.4
2017-08-10T04:16:16.484Z,1013.5
2017-08-10T04:17:38.007Z,1013.4
2017-08-10T04:18:39.423Z,1013.5
2017-08-10T04:20:00.923Z,1013.4
2017-08-10T04:21:02.336Z,1013.5
2017-08-10T04:22:23.854Z,1013.5
2017-08-10T04:23:25.268Z,1013.6
2017-08-10T04:24:46.771Z,1013.7
2017-08-10T04:25:48.183Z,1013.7
2017-08-10T04:27:10.696Z,1013.7
2017-08-10T04:28:12.107Z,1013.7
2017-08-10T04:29:33.607Z,1013.7
2017-08-10T04:30:35.018Z,1013.6
2017-08-10T04:31:56.535Z,1013.6
2017-08-10T04:32:57.955Z,1013.6
2017-08-10T04:34:19.450Z,1013.5
2017-08-10T04:35:20.862Z,1013.5
2017-08-10T04:36:42.381Z,1013.5
2017-08-10T04:37:43.807Z,1013.5
2017-08-10T04:39:05.298Z,1013.5
2017-08-10T04:40:06.712Z,1013.5
2017-08-10T04:41:28.235Z,1013.5
2017-08-10T04:42:29.650Z,1013.5
2017-08-10T04:43:51.150Z,1013.4
2017-08-10T04:44:52.562Z,1013.5
2017-08-10T04:46:14.556Z,1013.5
2017-08-10T07:00:34.778Z,1014.5
2017-08-10T07:01:36.196Z,1014.6
2017-08-10T07:02:57.718Z,1014.6
2017-08-10T07:03:59.134Z,1014.6
2017-08-10T07:05:20.641Z,1014.6
2017-08-10T07:06:22.058Z,1014.5
2017-08-10T07:07:43.579Z,1014.5
2017-08-10T07:08:44.995Z,1014.6
2017-08-10T07:10:06.663Z,1014.5
2017-08-10T07:11:08.084Z,1014.5
2017-08-10T07:12:29.609Z,1014.6
2017-08-10T07:13:31.025Z,1014.6
2017-08-10T07:14:52.528Z,1014.5
2017-08-10T07:15:53.945Z,1014.5
2017-08-10T07:17:15.471Z,1014.6
2017-08-10T07:18:16.887Z,1014.6
2017-08-10T07:19:38.393Z,1014.6
2017-08-10T07:20:39.809Z,1014.6
2017-08-10T07:22:01.311Z,1014.6
2017-08-10T07:23:02.726Z,1014.6
2017-08-10T07:24:24.248Z,1014.6
2017-08-10T07:25:25.666Z,1014.6
2017-08-10T07:26:47.173Z,1014.6
2017-08-10T07:27:48.590Z,1014.6
2017-08-10T07:29:10.115Z,1014.7
2017-08-10T07:30:11.533Z,1014.7
2017-08-10T07:31:33.039Z,1014.7
2017-08-10T07:32:34.455Z,1014.8
2017-08-10T07:33:55.980Z,1014.8
2017-08-10T07:34:57.397Z,1014.8
2017-08-10T07:36:18.904Z,1014.9
2017-08-10T07:37:20.322Z,1014.9
2017-08-10T07:38:41.847Z,1014.9
2017-08-10T07:39:43.263Z,1014.9
2017-08-10T07:41:04.767Z,1015.0
2017-08-10T07:42:06.184Z,1015.0
2017-08-10T07:43:27.728Z,1014.9
2017-08-10T07:44:29.130Z,1015.0
2017-08-10T07:45:50.637Z,1014.9
2017-08-10T07:46:52.056Z,1014.9
2017-08-10T07:48:13.581Z,1015.0
2017-08-10T07:49:14.997Z,1015.0
2017-08-10T07:50:36.506Z,1015.0
2017-08-10T07:51:37.920Z,1015.0
2017-08-10T07:53:00.443Z,1015.0
2017-08-10T07:54:01.858Z,1015.0
2017-08-10T07:55:23.362Z,1015.0
2017-08-10T07:56:24.780Z,1015.0
2017-08-10T07:57:46.306Z,1015.0
2017-08-10T07:58:47.724Z,1015.0
2017-08-10T08:00:09.231Z,1015.0
2017-08-10T08:01:10.651Z,1015.0
2017-08-10T08:02:32.310Z,1014.9
2017-08-10T08:03:33.728Z,1014.9
2017-08-10T08:04:55.235Z,1014.8
2017-08-10T08:05:56.654Z,1014.8
2017-08-10T08:07:18.166Z,1014.9
2017-08-10T08:08:19.584Z,1014.8
2017-08-10T08:09:41.107Z,1014.9
2017-08-10T08:10:42.526Z,1014.9
2017-08-10T08:12:04.033Z,1014.9
2017-08-10T08:13:05.450Z,1014.9
2017-08-10T08:14:26.980Z,1014.9
2017-08-10T08:15:28.398Z,1014.9
2017-08-10T08:16:49.913Z,1014.9
2017-08-10T08:17:51.330Z,1014.9
2017-08-10T08:19:12.861Z,1014.9
2017-08-10T08:20:14.280Z,1014.8
2017-08-10T08:21:35.793Z,1014.9
2017-08-10T08:22:37.211Z,1014.9
2017-08-10T08:24:00.233Z,1014.9
2017-08-10T08:25:01.654Z,1014.8
2017-08-10T08:26:23.166Z,1014.8
2017-08-10T08:27:24.584Z,1014.8
2017-08-10T08:28:46.115Z,1014.7
2017-08-10T08:29:47.535Z,1014.8
2017-08-10T08:31:09.048Z,1014.8
2017-08-10T08:32:10.467Z,1014.8
2017-08-10T08:33:32.500Z,1014.8
2017-08-10T08:34:33.921Z,1014.8
2017-08-10T08:35:55.437Z,1014.8
2017-08-10T08:36:56.856Z,1014.8
2017-08-10T08:38:18.387Z,1014.8
2017-08-10T08:39:19.806Z,1014.7
2017-08-10T08:40:41.323Z,1014.7
2017-08-10T08:41:42.734Z,1014.7
2017-08-10T08:43:04.259Z,1014.7
2017-08-10T08:44:05.680Z,1014.7
2017-08-10T08:45:27.186Z,1014.7
2017-08-10T08:46:28.604Z,1014.8
2017-08-10T08:47:51.133Z,1014.9
2017-08-10T08:48:52.552Z,1014.9
2017-08-10T08:50:14.278Z,1014.9
2017-08-10T08:51:15.698Z,1014.8
2017-08-10T08:52:37.209Z,1014.9
2017-08-10T08:53:38.629Z,1014.8
2017-08-10T08:55:00.344Z,1014.8
2017-08-10T08:56:01.766Z,1014.8
2017-08-10T08:57:23.275Z,1014.8
2017-08-10T08:58:24.710Z,1014.8
2017-08-10T08:59:46.226Z,1014.8
2017-08-10T09:00:47.645Z,1014.8
2017-08-10T09:02:09.158Z,1014.8
2017-08-10T09:03:10.586Z,1014.9
2017-08-10T09:04:32.115Z,1014.9
2017-08-10T09:05:33.534Z,1014.8
2017-08-10T09:06:55.048Z,1014.8
2017-08-10T09:07:56.469Z,1014.8
2017-08-10T09:09:18.002Z,1014.8
2017-08-10T09:10:19.419Z,1014.7
2017-08-10T09:11:40.932Z,1014.7
2017-08-10T09:12:42.351Z,1014.7
2017-08-10T09:14:03.886Z,1014.7
2017-08-10T09:15:05.307Z,1014.7
2017-08-10T09:16:26.823Z,1014.7
2017-08-10T09:17:28.243Z,1014.7
2017-08-10T09:18:50.125Z,1014.6
2017-08-10T09:19:53.470Z,1014.6
2017-08-10T09:21:17.436Z,1014.6
2017-08-10T09:49:50.028Z,1015.1
2017-08-10T09:50:51.451Z,1015.2
2017-08-10T09:52:12.962Z,1015.1
2017-08-10T09:53:14.382Z,1015.1
2017-08-10T09:54:35.913Z,1015.1
2017-08-10T09:55:37.333Z,1015.1
2017-08-10T09:56:58.851Z,1015.1
2017-08-10T09:58:00.272Z,1015.1
2017-08-10T09:59:21.807Z,1015.1
2017-08-10T10:00:23.226Z,1015.1
2017-08-10T10:01:44.738Z,1015.1
2017-08-10T10:02:46.161Z,1015.1
2017-08-10T10:04:07.690Z,1015.2
2017-08-10T10:05:09.114Z,1015.1
2017-08-10T10:06:30.628Z,1015.1
2017-08-10T10:07:32.054Z,1015.1
2017-08-10T10:08:53.602Z,1015.1
2017-08-10T10:10:34.492Z,1015.1
2017-08-10T10:12:15.379Z,1015.1
2017-08-10T10:13:16.806Z,1015.1
2017-08-10T10:14:38.339Z,1015.1
2017-08-10T10:15:39.761Z,1015.1
2017-08-10T10:17:01.279Z,1015.0
2017-08-10T10:18:02.701Z,1015.0
2017-08-10T10:19:24.232Z,1014.8
2017-08-10T10:20:25.656Z,1014.7
2017-08-10T10:21:47.174Z,1014.6
2017-08-10T10:22:48.596Z,1014.5
2017-08-10T10:24:10.127Z,1014.4
2017-08-10T10:25:11.552Z,1014.4
2017-08-10T10:26:33.070Z,1014.4
2017-08-10T10:27:34.489Z,1014.3
2017-08-10T10:28:56.023Z,1014.3
2017-08-10T10:29:57.445Z,1014.3
2017-08-10T10:31:18.960Z,1014.2
2017-08-10T10:32:20.381Z,1014.3
2017-08-10T10:33:41.913Z,1014.3
2017-08-10T10:34:43.337Z,1014.3
2017-08-10T10:36:04.859Z,1014.3
2017-08-10T10:37:06.284Z,1014.4
2017-08-10T10:38:27.822Z,1014.4
2017-08-10T10:39:29.243Z,1014.5
2017-08-10T10:40:50.760Z,1014.5
2017-08-10T10:41:52.182Z,1014.5
2017-08-10T10:43:13.910Z,1014.5
2017-08-10T10:44:15.329Z,1014.4
2017-08-10T10:45:37.062Z,1014.5
2017-08-10T10:46:38.483Z,1014.5
2017-08-10T10:47:59.999Z,1014.5
2017-08-10T10:49:01.420Z,1014.4
2017-08-10T10:50:22.952Z,1014.4
2017-08-10T10:51:24.375Z,1014.4
2017-08-10T10:52:45.889Z,1014.5
2017-08-10T10:53:47.311Z,1014.5
2017-08-10T10:55:08.840Z,1014.6
2017-08-10T10:56:10.263Z,1014.6
2017-08-10T10:57:31.783Z,1014.6
2017-08-10T10:58:33.203Z,1014.6
2017-08-10T10:59:54.741Z,1014.7
2017-08-10T11:00:56.163Z,1014.8
2017-08-10T11:02:18.671Z,1014.7
2017-08-10T11:03:20.096Z,1014.8
2017-08-10T11:04:41.626Z,1014.8
2017-08-10T11:05:43.048Z,1014.8
2017-08-10T11:07:04.557Z,1014.8
2017-08-10T11:08:05.979Z,1014.8
2017-08-10T11:09:27.508Z,1014.9
2017-08-10T11:10:28.930Z,1014.9
2017-08-10T11:11:50.441Z,1014.9
2017-08-10T11:12:52.097Z,1015.0
2017-08-10T11:14:13.635Z,1015.0
2017-08-10T11:15:15.211Z,1015.0
2017-08-10T11:16:37.082Z,1015.0
2017-08-10T11:17:38.508Z,1015.0
2017-08-10T11:19:00.292Z,1015.0
2017-08-10T11:20:01.722Z,1015.0
2017-08-10T11:21:23.240Z,1015.0
2017-08-10T11:22:24.659Z,1015.0
2017-08-10T11:23:46.194Z,1015.0
2017-08-10T11:24:47.614Z,1015.0
2017-08-10T11:26:09.609Z,1015.0
2017-08-10T11:27:10.996Z,1015.0
2017-08-10T11:28:32.538Z,1015.0
2017-08-10T11:29:33.958Z,1015.0
2017-08-10T11:30:55.477Z,1014.9
2017-08-10T11:31:56.898Z,1014.8
2017-08-10T11:33:18.415Z,1014.9
2017-08-10T11:34:19.839Z,1014.8
2017-08-10T11:35:41.375Z,1014.8
2017-08-10T11:36:42.794Z,1014.8
2017-08-10T11:38:04.320Z,1014.8
2017-08-10T11:39:05.747Z,1014.8
2017-08-10T11:40:27.273Z,1014.8
2017-08-10T11:41:28.722Z,1014.9
2017-08-10T11:42:51.213Z,1014.9
2017-08-10T11:43:52.635Z,1014.9
2017-08-10T11:45:14.195Z,1014.9
2017-08-10T11:46:15.619Z,1015.0
2017-08-10T11:47:37.129Z,1015.0
2017-08-10T11:48:38.554Z,1015.1
2017-08-10T11:50:00.098Z,1015.0
2017-08-10T11:51:01.523Z,1015.1
2017-08-10T11:52:24.230Z,1015.1
2017-08-10T11:53:25.652Z,1015.0
2017-08-10T11:54:47.184Z,1015.0
2017-08-10T11:55:48.606Z,1015.0
2017-08-10T11:57:10.120Z,1014.9
2017-08-10T11:58:11.546Z,1014.9
2017-08-10T11:59:33.075Z,1014.8
2017-08-10T12:00:34.501Z,1014.8
2017-08-10T12:01:56.014Z,1014.7
2017-08-10T12:03:36.922Z,1014.8
2017-08-10T12:04:38.379Z,1014.8
2017-08-10T12:06:01.089Z,1014.8
2017-08-10T12:07:02.507Z,1014.8
2017-08-10T12:08:24.030Z,1014.8
2017-08-10T12:09:25.452Z,1014.8
2017-08-10T12:10:47.472Z,1014.8
2017-08-10T12:11:48.899Z,1014.8
2017-08-10T12:13:10.586Z,1014.8
2017-08-10T12:14:12.012Z,1014.8
2017-08-10T12:15:33.548Z,1014.8
2017-08-10T12:16:34.968Z,1014.8
2017-08-10T12:17:56.487Z,1014.8
2017-08-10T12:18:57.912Z,1014.8
2017-08-10T12:20:19.443Z,1014.8
2017-08-10T12:21:20.864Z,1014.8
2017-08-10T12:22:42.375Z,1014.8
2017-08-10T12:23:44.087Z,1014.7
2017-08-10T12:25:05.606Z,1014.8
2017-08-10T12:26:07.028Z,1014.7
2017-08-10T12:27:28.548Z,1014.7
2017-08-10T12:28:29.969Z,1014.7
2017-08-10T12:29:51.506Z,1014.7
2017-08-10T12:30:52.929Z,1014.7
2017-08-10T12:32:14.607Z,1014.7
2017-08-10T12:33:16.031Z,1014.7
2017-08-10T12:34:37.561Z,1014.6
2017-08-10T12:35:38.985Z,1014.6
2017-08-10T12:37:00.503Z,1014.7
2017-08-10T12:38:01.922Z,1014.6
2017-08-10T12:39:23.456Z,1014.6
2017-08-10T12:40:24.880Z,1014.6
2017-08-10T12:41:46.416Z,1014.5
2017-08-10T12:42:47.838Z,1014.5
2017-08-10T12:44:09.376Z,1014.5
2017-08-10T12:45:10.798Z,1014.6
2017-08-10T12:46:32.312Z,1014.5
2017-08-10T12:47:33.737Z,1014.5
2017-08-10T12:48:55.269Z,1014.5
2017-08-10T12:49:56.697Z,1014.5
2017-08-10T12:51:18.216Z,1014.5
2017-08-10T12:52:19.638Z,1014.4
2017-08-10T12:53:41.160Z,1014.4
2017-08-10T12:54:42.583Z,1014.4
2017-08-10T12:56:04.114Z,1014.4
2017-08-10T12:57:05.534Z,1014.5
2017-08-10T12:58:27.046Z,1014.5
2017-08-10T12:59:28.485Z,1014.5
2017-08-10T13:00:50.013Z,1014.5
2017-08-10T13:01:51.436Z,1014.4
2017-08-10T13:03:12.948Z,1014.4
2017-08-10T13:04:14.372Z,1014.5
2017-08-10T13:05:35.920Z,1014.5
2017-08-10T13:06:37.814Z,1014.5
2017-08-10T13:07:59.308Z,1014.4
2017-08-10T13:09:01.757Z,1014.4
2017-08-10T13:10:23.291Z,1014.3
2017-08-10T13:11:24.714Z,1014.3
2017-08-10T13:12:46.225Z,1014.4
2017-08-10T13:13:47.651Z,1014.3
2017-08-10T13:15:10.585Z,1014.3
2017-08-10T13:16:11.894Z,1014.3
2017-08-10T13:17:33.398Z,1014.3
2017-08-10T13:18:34.819Z,1014.3
2017-08-10T13:19:56.364Z,1014.3
2017-08-10T13:21:37.251Z,1014.3
2017-08-10T13:23:18.138Z,1014.3
2017-08-10T13:24:19.559Z,1014.3
2017-08-10T13:25:41.605Z,1014.4
2017-08-10T13:26:43.002Z,1014.4
2017-08-10T13:28:04.514Z,1014.4
2017-08-10T13:29:05.933Z,1014.4
2017-08-10T13:30:27.468Z,1014.4
2017-08-10T13:31:28.888Z,1014.4
2017-08-10T13:32:50.406Z,1014.5
2017-08-10T13:33:51.821Z,1014.5
2017-08-10T13:35:13.485Z,1014.6
2017-08-10T13:36:14.903Z,1014.5
2017-08-10T13:37:36.415Z,1014.6
2017-08-10T13:38:37.836Z,1014.5
2017-08-10T13:39:59.372Z,1014.5
2017-08-10T13:41:00.792Z,1014.5
2017-08-10T13:42:22.537Z,1014.4
2017-08-10T13:43:23.959Z,1014.4
2017-08-10T13:44:45.493Z,1014.4
2017-08-10T13:45:46.916Z,1014.4
2017-08-10T13:47:08.428Z,1014.4
2017-08-10T13:48:09.848Z,1014.4
2017-08-10T13:49:31.588Z,1014.4
2017-08-10T13:50:33.011Z,1014.4
2017-08-10T13:51:54.541Z,1014.4
2017-08-10T13:52:55.962Z,1014.4
2017-08-10T13:54:17.475Z,1014.4
2017-08-10T13:55:18.895Z,1014.4
2017-08-10T13:56:40.424Z,1014.4
2017-08-10T13:57:41.845Z,1014.4
2017-08-10T13:59:03.357Z,1014.4
2017-08-10T14:00:04.791Z,1014.4
2017-08-10T14:01:26.307Z,1014.4
2017-08-10T14:02:27.732Z,1014.3
2017-08-10T14:03:49.240Z,1014.3
2017-08-10T14:04:50.660Z,1014.3
2017-08-10T14:06:12.189Z,1014.3
2017-08-10T14:07:13.610Z,1014.3
2017-08-10T14:08:35.120Z,1014.3
2017-08-10T14:09:36.540Z,1014.3
2017-08-10T14:10:58.069Z,1014.3
2017-08-10T14:11:59.490Z,1014.3
2017-08-10T14:13:21.006Z,1014.3
2017-08-10T14:14:22.422Z,1014.3
2017-08-10T14:15:43.966Z,1014.3
2017-08-10T14:16:45.388Z,1014.3
2017-08-10T14:18:06.985Z,1014.3
2017-08-10T14:19:08.412Z,1014.3
2017-08-10T14:20:29.942Z,1014.3
2017-08-10T14:21:31.378Z,1014.3
2017-08-10T14:22:52.874Z,1014.3
2017-08-10T14:23:54.293Z,1014.3
2017-08-10T14:25:15.824Z,1014.3
2017-08-10T14:26:17.244Z,1014.3
2017-08-10T14:27:38.756Z,1014.2
2017-08-10T14:28:41.284Z,1014.2
2017-08-10T14:30:02.748Z,1014.2
2017-08-10T14:31:04.634Z,1014.2
2017-08-10T14:32:26.160Z,1014.1
2017-08-10T14:33:27.584Z,1014.1
2017-08-10T14:34:49.100Z,1014.1
2017-08-10T14:35:50.521Z,1014.1
2017-08-10T14:37:12.051Z,1014.1
2017-08-10T14:38:13.474Z,1014.1
2017-08-10T14:39:35.196Z,1014.0
2017-08-10T14:40:36.616Z,1014.0
2017-08-10T14:41:58.346Z,1014.0
2017-08-10T14:42:59.766Z,1014.0
2017-08-10T14:44:21.273Z,1014.0
2017-08-10T14:45:22.693Z,1014.0
2017-08-10T14:46:44.242Z,1014.0
2017-08-10T14:47:45.663Z,1013.9
2017-08-10T14:49:07.175Z,1014.0
2017-08-10T14:50:08.595Z,1014.0
2017-08-10T14:51:30.128Z,1013.9
2017-08-10T14:52:31.551Z,1013.9
2017-08-10T14:53:53.062Z,1013.9
2017-08-10T14:54:54.482Z,1013.9
2017-08-10T14:56:16.020Z,1013.9
2017-08-10T14:57:17.439Z,1013.9
2017-08-10T14:58:38.953Z,1013.9
2017-08-10T14:59:40.397Z,1013.9
2017-08-10T15:01:01.919Z,1013.9
2017-08-10T15:02:03.342Z,1013.9
2017-08-10T15:03:24.861Z,1013.8
2017-08-10T15:04:26.278Z,1013.8
2017-08-10T15:05:47.805Z,1013.8
2017-08-10T15:06:49.228Z,1013.8
2017-08-10T15:08:10.739Z,1013.8
2017-08-10T15:09:12.160Z,1013.8
2017-08-10T15:10:33.690Z,1013.8
2017-08-10T15:11:35.110Z,1013.8
2017-08-10T15:12:56.624Z,1013.8
2017-08-10T15:13:58.043Z,1013.8
2017-08-10T15:15:19.556Z,1013.8
2017-08-10T15:16:20.978Z,1013.8
2017-08-10T15:17:42.626Z,1013.8
2017-08-10T15:18:44.070Z,1013.8
2017-08-10T15:20:05.628Z,1013.8
2017-08-10T15:21:07.042Z,1013.9
2017-08-10T15:22:28.576Z,1013.8
2017-08-10T15:23:29.996Z,1013.8
2017-08-10T15:24:51.511Z,1013.8
2017-08-10T15:25:52.930Z,1013.9
2017-08-10T15:27:14.456Z,1013.8
2017-08-10T15:28:15.878Z,1013.8
2017-08-10T15:29:37.386Z,1013.8
2017-08-10T15:30:38.806Z,1013.9
2017-08-10T15:32:00.518Z,1013.8
2017-08-10T15:33:01.941Z,1013.8
2017-08-10T15:34:23.461Z,1013.8
2017-08-10T15:35:24.924Z,1013.8
2017-08-10T15:36:46.460Z,1013.8
2017-08-10T15:37:48.148Z,1013.8
2017-08-10T15:39:09.910Z,1013.8
2017-08-10T15:40:11.333Z,1013.8
2017-08-10T15:41:32.972Z,1013.8
2017-08-10T15:43:13.864Z,1013.9
2017-08-10T15:44:15.282Z,1013.9
2017-08-10T15:45:36.839Z,1013.9
2017-08-10T15:46:38.650Z,1013.8
2017-08-10T15:48:01.406Z,1013.8
2017-08-10T15:49:02.833Z,1013.8
2017-08-10T15:50:24.366Z,1013.7
2017-08-10T15:51:25.791Z,1013.7
2017-08-10T15:52:47.324Z,1013.7
2017-08-10T15:53:48.746Z,1013.7
2017-08-10T15:55:10.258Z,1013.7
2017-08-10T15:56:12.570Z,1013.6
2017-08-10T15:57:34.140Z,1013.6
2017-08-10T15:58:35.559Z,1013.5
2017-08-10T15:59:57.076Z,1013.6
2017-08-10T16:00:58.500Z,1013.6
2017-08-10T16:02:20.027Z,1013.6
2017-08-10T16:03:21.446Z,1013.6
2017-08-10T16:04:42.957Z,1013.6
2017-08-10T16:05:44.416Z,1013.6
2017-08-10T16:07:06.978Z,1013.6
2017-08-10T16:08:08.400Z,1013.6
2017-08-10T16:09:29.950Z,1013.6
2017-08-10T16:10:31.374Z,1013.6
2017-08-10T16:11:52.909Z,1013.6
2017-08-10T16:12:54.332Z,1013.6
2017-08-10T16:14:15.845Z,1013.5
2017-08-10T16:15:17.275Z,1013.5
2017-08-10T16:16:38.844Z,1013.5
2017-08-10T16:17:40.264Z,1013.5
2017-08-10T16:19:02.769Z,1013.5
2017-08-10T16:20:04.218Z,1013.5
2017-08-10T16:21:25.759Z,1013.5
2017-08-10T16:23:06.639Z,1013.6
2017-08-10T16:24:08.058Z,1013.6
2017-08-10T16:25:29.693Z,1013.6
2017-08-10T16:26:31.112Z,1013.5
2017-08-10T16:27:52.681Z,1013.6
2017-08-10T16:28:54.094Z,1013.5
2017-08-10T16:30:15.635Z,1013.6
2017-08-10T16:31:17.110Z,1013.6
2017-08-10T16:32:38.898Z,1013.6
2017-08-10T16:33:40.315Z,1013.6
2017-08-10T16:35:01.823Z,1013.5
2017-08-10T16:36:03.245Z,1013.5
2017-08-10T16:37:24.776Z,1013.5
2017-08-10T16:38:26.198Z,1013.5
2017-08-10T16:39:47.714Z,1013.5
2017-08-10T16:40:49.133Z,1013.5
2017-08-10T16:42:10.850Z,1013.5
2017-08-10T16:43:12.269Z,1013.6
2017-08-10T16:44:33.975Z,1013.5
2017-08-10T16:45:35.512Z,1013.6
2017-08-10T16:46:57.036Z,1013.6
2017-08-10T16:47:58.467Z,1013.5
2017-08-10T16:49:20.001Z,1013.6
2017-08-10T16:50:21.419Z,1013.5
2017-08-10T16:51:42.955Z,1013.5
2017-08-10T16:52:44.375Z,1013.5
2017-08-10T16:54:05.890Z,1013.5
2017-08-10T16:55:07.307Z,1013.6
2017-08-10T16:56:28.816Z,1013.6
2017-08-10T16:57:30.236Z,1013.6
2017-08-10T16:58:51.763Z,1013.6
2017-08-10T16:59:53.183Z,1013.6
2017-08-10T17:01:14.691Z,1013.6
2017-08-10T17:02:16.116Z,1013.6
2017-08-10T17:03:37.646Z,1013.6
2017-08-10T17:04:39.101Z,1013.6
2017-08-10T17:06:00.609Z,1013.6
2017-08-10T17:07:02.027Z,1013.7
2017-08-10T17:08:23.555Z,1013.7
2017-08-10T17:09:24.975Z,1013.7
2017-08-10T17:10:46.485Z,1013.7
2017-08-10T17:11:48.029Z,1013.8
2017-08-10T17:13:15.924Z,1013.8
2017-08-10T17:14:17.373Z,1013.8
2017-08-10T17:15:38.993Z,1013.9
2017-08-10T17:16:40.410Z,1013.8
2017-08-10T17:18:01.952Z,1013.8
2017-08-10T17:19:03.389Z,1013.8
2017-08-10T17:20:24.950Z,1013.8
2017-08-10T17:21:26.591Z,1013.8
2017-08-10T17:22:48.250Z,1013.9
2017-08-10T17:23:49.672Z,1013.9
2017-08-10T17:25:11.411Z,1013.9
2017-08-10T17:26:12.835Z,1013.9
2017-08-10T17:27:34.502Z,1013.9
2017-08-10T17:28:35.919Z,1014.0
2017-08-10T17:29:57.647Z,1013.9
2017-08-10T17:30:59.067Z,1014.0
2017-08-10T17:32:20.604Z,1014.0
2017-08-10T17:33:22.020Z,1014.0
2017-08-10T17:34:43.931Z,1014.0
2017-08-10T17:35:45.367Z,1014.0